createdAt,value
2022-09-25T00:02:30.271Z,14.17
2022-09-25T00:05:00.166Z,14.16
2022-09-25T00:07:53.638Z,14.14
2022-09-25T00:10:24.715Z,14.16
2022-09-25T00:12:55.848Z,14.16
2022-09-25T00:15:30.990Z,14.18
2022-09-25T00:18:03.622Z,14.19
2022-09-25T00:20:32.924Z,14.21
2022-09-25T00:23:08.571Z,14.17
2022-09-25T00:25:41.639Z,14.17
2022-09-25T00:28:18.223Z,14.23
2022-09-25T00:30:48.293Z,14.26
2022-09-25T00:33:18.966Z,14.31
2022-09-25T00:36:17.348Z,14.36
2022-09-25T00:39:11.519Z,14.40
2022-09-25T00:41:43.409Z,14.44
2022-09-25T00:48:40.214Z,14.52
2022-09-25T00:51:13.804Z,14.58
2022-09-25T00:54:32.943Z,14.60
2022-09-25T00:57:34.055Z,14.60
2022-09-25T01:00:38.955Z,14.61
2022-09-25T01:03:39.694Z,14.66
2022-09-25T01:06:21.681Z,14.68
2022-09-25T01:08:56.410Z,14.73
2022-09-25T01:15:20.001Z,14.82
2022-09-25T01:18:02.871Z,14.85
2022-09-25T01:21:04.270Z,14.85
2022-09-25T01:24:04.385Z,14.81
2022-09-25T01:27:23.379Z,14.80
2022-09-25T01:30:27.991Z,14.81
2022-09-25T01:33:11.504Z,14.83
2022-09-25T01:35:50.496Z,14.86
2022-09-25T01:38:28.451Z,14.92
2022-09-25T01:41:33.613Z,14.94
2022-09-25T01:44:13.856Z,14.96
2022-09-25T01:47:10.074Z,14.99
2022-09-25T01:50:10.423Z,14.99
2022-09-25T01:52:45.989Z,15.02
2022-09-25T01:55:26.946Z,15.07
2022-09-25T01:58:31.791Z,15.12
2022-09-25T02:01:10.429Z,15.12
2022-09-25T02:04:56.505Z,15.11
2022-09-25T02:07:30.312Z,15.09
2022-09-25T02:10:33.071Z,15.15
2022-09-25T02:13:10.114Z,15.15
2022-09-25T02:15:44.582Z,15.14
2022-09-25T02:18:42.480Z,15.15
2022-09-25T02:21:45.242Z,15.16
2022-09-25T02:28:05.394Z,15.21
2022-09-25T02:30:39.332Z,15.22
2022-09-25T02:34:00.259Z,15.20
2022-09-25T02:37:27.792Z,15.20
2022-09-25T02:47:17.846Z,15.21
2022-09-25T02:56:46.814Z,15.26
2022-09-25T03:00:03.780Z,15.24
2022-09-25T03:03:01.487Z,15.23
2022-09-25T03:05:42.168Z,15.25
2022-09-25T03:18:38.449Z,15.24
2022-09-25T03:24:40.458Z,15.25
2022-09-25T03:27:13.953Z,15.24
2022-09-25T03:30:17.051Z,15.26
2022-09-25T03:33:20.349Z,15.26
2022-09-25T03:37:11.258Z,15.27
2022-09-25T03:39:40.026Z,15.25
2022-09-25T03:42:13.259Z,15.22
2022-09-25T03:44:49.018Z,15.22
2022-09-25T03:47:45.640Z,15.23
2022-09-25T03:50:18.733Z,15.23
2022-09-25T03:52:48.519Z,15.25
2022-09-25T03:55:23.468Z,15.26
2022-09-25T03:58:04.900Z,15.25
2022-09-25T04:00:43.582Z,15.23
2022-09-25T04:03:40.500Z,15.23
2022-09-25T04:06:37.793Z,15.20
2022-09-25T04:09:59.027Z,15.25
2022-09-25T04:12:56.641Z,15.24
2022-09-25T04:15:32.930Z,15.25
2022-09-25T04:18:07.188Z,15.30
2022-09-25T04:20:38.504Z,15.34
2022-09-25T04:23:09.965Z,15.34
2022-09-25T04:25:48.583Z,15.34
2022-09-25T04:28:26.256Z,15.35
2022-09-25T04:31:22.386Z,15.40
2022-09-25T04:37:41.890Z,15.38
2022-09-25T04:41:03.267Z,15.40
2022-09-25T04:44:26.269Z,15.38
2022-09-25T04:47:24.702Z,15.42
2022-09-25T04:50:23.672Z,15.45
2022-09-25T04:52:57.787Z,15.45
2022-09-25T04:55:30.798Z,15.47
2022-09-25T05:04:45.978Z,15.53
2022-09-25T05:07:53.943Z,15.53
2022-09-25T05:11:12.198Z,15.55
2022-09-25T05:13:50.139Z,15.52
2022-09-25T05:16:25.979Z,15.57
2022-09-25T05:19:46.816Z,15.57
2022-09-25T05:22:44.124Z,15.61
2022-09-25T05:25:23.713Z,15.65
2022-09-25T05:31:10.059Z,15.67
2022-09-25T05:37:10.867Z,15.79
2022-09-25T05:40:29.101Z,15.80
2022-09-25T05:43:00.660Z,15.82
2022-09-25T05:45:32.029Z,15.88
2022-09-25T05:48:07.781Z,15.90
2022-09-25T05:50:39.787Z,15.96
2022-09-25T05:53:14.373Z,15.96
2022-09-25T06:02:59.462Z,16.07
2022-09-25T06:05:37.229Z,16.05
2022-09-25T06:08:42.483Z,16.07
2022-09-25T06:12:11.275Z,16.09
2022-09-25T06:14:48.432Z,16.07
2022-09-25T06:17:20.816Z,16.08
2022-09-25T06:19:51.301Z,16.09
2022-09-25T06:29:08.205Z,16.20
2022-09-25T06:31:43.027Z,16.17
2022-09-25T06:35:28.774Z,16.17
2022-09-25T06:38:04.877Z,16.17
2022-09-25T06:40:41.777Z,16.16
2022-09-25T06:43:43.181Z,16.13
2022-09-25T06:46:47.703Z,16.14
2022-09-25T06:49:28.487Z,16.16
2022-09-25T06:52:25.125Z,16.21
2022-09-25T06:55:00.262Z,16.21
2022-09-25T06:57:55.595Z,16.25
2022-09-25T07:00:28.479Z,16.30
2022-09-25T07:03:21.421Z,16.31
2022-09-25T07:05:53.861Z,16.31
2022-09-25T07:08:26.679Z,16.34
2022-09-25T07:11:00.188Z,16.35
2022-09-25T07:14:00.488Z,16.38
2022-09-25T07:16:56.835Z,16.41
2022-09-25T07:19:30.129Z,16.44
2022-09-25T07:22:27.618Z,16.45
2022-09-25T07:25:23.310Z,16.46
2022-09-25T07:27:52.376Z,16.51
2022-09-25T07:30:20.786Z,16.59
2022-09-25T07:36:45.323Z,16.77
2022-09-25T07:39:40.586Z,16.91
2022-09-25T07:42:11.395Z,17.02
2022-09-25T07:45:15.347Z,17.09
2022-09-25T07:48:17.739Z,17.13
2022-09-25T07:54:43.284Z,17.33
2022-09-25T07:57:38.895Z,17.40
2022-09-25T08:00:36.150Z,17.48
2022-09-25T08:03:11.070Z,17.50
2022-09-25T08:05:45.280Z,17.55
2022-09-25T08:10:26.829Z,17.09
2022-09-25T08:13:31.126Z,17.44
2022-09-25T08:16:05.110Z,17.50
2022-09-25T08:18:38.394Z,17.55
2022-09-25T08:21:40.854Z,17.61
2022-09-25T08:25:04.483Z,17.70
2022-09-25T08:27:47.393Z,17.85
2022-09-25T08:30:18.950Z,17.94
2022-09-25T08:33:39.559Z,18.03
2022-09-25T08:36:36.247Z,18.18
2022-09-25T08:39:11.650Z,18.36
2022-09-25T08:41:50.350Z,18.55
2022-09-25T08:44:29.690Z,18.76
2022-09-25T08:47:38.728Z,18.93
2022-09-25T08:50:38.646Z,19.12
2022-09-25T08:57:56.968Z,19.45
2022-09-25T09:01:45.131Z,19.58
2022-09-25T09:04:51.507Z,19.70
2022-09-25T09:07:45.012Z,19.85
2022-09-25T09:10:31.449Z,19.96
2022-09-25T09:13:16.108Z,20.00
2022-09-25T09:16:36.456Z,20.04
2022-09-25T09:19:10.871Z,19.97
2022-09-25T09:22:31.340Z,19.89
2022-09-25T09:25:13.481Z,19.82
2022-09-25T09:28:14.501Z,19.72
2022-09-25T09:30:53.642Z,19.66
2022-09-25T09:33:49.715Z,19.71
2022-09-25T09:36:50.240Z,19.64
2022-09-25T09:39:50.177Z,19.62
2022-09-25T09:49:14.941Z,19.72
2022-09-25T09:52:20.561Z,19.79
2022-09-25T09:55:30.475Z,19.76
2022-09-25T09:58:10.057Z,19.80
2022-09-25T10:01:16.252Z,19.88
2022-09-25T10:04:24.779Z,19.91
2022-09-25T10:07:24.762Z,19.95
2022-09-25T10:10:27.542Z,19.90
2022-09-25T10:16:13.191Z,20.14
2022-09-25T10:19:19.500Z,20.41
2022-09-25T10:22:23.063Z,20.60
2022-09-25T10:27:55.726Z,20.80
2022-09-25T10:30:24.287Z,20.92
2022-09-25T10:33:06.318Z,20.99
2022-09-25T10:35:49.327Z,21.12
2022-09-25T10:38:55.283Z,21.31
2022-09-25T10:41:49.212Z,21.52
2022-09-25T10:44:25.491Z,21.72
2022-09-25T10:47:58.503Z,21.96
2022-09-25T10:50:41.145Z,22.39
2022-09-25T10:53:38.899Z,22.50
2022-09-25T10:56:15.753Z,22.81
2022-09-25T10:59:20.115Z,23.11
2022-09-25T11:02:02.625Z,23.30
2022-09-25T11:04:57.857Z,23.37
2022-09-25T11:07:31.431Z,23.48
2022-09-25T11:11:15.760Z,23.57
2022-09-25T11:15:00.441Z,23.73
2022-09-25T11:17:56.758Z,23.73
2022-09-25T11:20:33.592Z,23.74
2022-09-25T11:23:26.199Z,23.85
2022-09-25T11:26:36.687Z,23.93
2022-09-25T11:29:41.622Z,24.00
2022-09-25T11:32:23.660Z,24.11
2022-09-25T11:35:31.965Z,24.14
2022-09-25T11:38:20.912Z,24.18
2022-09-25T11:45:33.421Z,24.07
2022-09-25T11:52:43.793Z,24.12
2022-09-25T11:55:47.175Z,24.32
2022-09-25T12:01:54.780Z,24.72
2022-09-25T12:08:55.705Z,24.70
2022-09-25T12:17:57.021Z,24.45
2022-09-25T12:21:07.266Z,24.29
2022-09-25T12:23:46.001Z,23.92
2022-09-25T12:26:53.220Z,23.78
2022-09-25T12:29:47.574Z,23.51
2022-09-25T12:32:53.211Z,23.33
2022-09-25T12:35:38.927Z,23.24
2022-09-25T12:38:21.242Z,23.21
2022-09-25T12:44:56.603Z,23.35
2022-09-25T12:58:00.647Z,24.11
2022-09-25T13:00:35.677Z,24.26
2022-09-25T13:03:22.123Z,24.35
2022-09-25T13:19:53.583Z,24.13
2022-09-25T13:22:50.766Z,23.98
2022-09-25T13:25:47.262Z,23.80
2022-09-25T13:28:27.453Z,23.65
2022-09-25T13:31:12.515Z,23.54
2022-09-25T13:34:16.900Z,23.49
2022-09-25T13:36:50.554Z,23.40
2022-09-25T13:42:57.980Z,23.29
2022-09-25T13:45:35.380Z,23.29
2022-09-25T13:48:22.312Z,23.25
2022-09-25T13:51:45.144Z,23.25
2022-09-25T13:54:33.248Z,23.26
2022-09-25T13:57:18.374Z,23.20
2022-09-25T14:00:06.348Z,23.15
2022-09-25T14:02:46.988Z,23.12
2022-09-25T14:05:27.447Z,23.08
2022-09-25T14:11:41.152Z,23.07
2022-09-25T14:17:21.794Z,23.07
2022-09-25T14:19:58.986Z,23.12
2022-09-25T14:23:42.632Z,23.13
2022-09-25T14:26:21.931Z,23.15
2022-09-25T14:28:54.941Z,23.14
2022-09-25T14:31:45.171Z,23.12
2022-09-25T14:34:44.232Z,23.10
2022-09-25T14:40:46.250Z,22.94
2022-09-25T14:43:44.755Z,22.95
2022-09-25T14:46:19.325Z,23.00
2022-09-25T14:48:56.044Z,23.00
2022-09-25T14:51:31.437Z,23.00
2022-09-25T14:54:13.403Z,22.92
2022-09-25T14:56:49.841Z,22.94
2022-09-25T14:59:46.031Z,22.92
2022-09-25T15:03:09.578Z,22.87
2022-09-25T15:05:50.732Z,22.82
2022-09-25T15:08:26.103Z,22.78
2022-09-25T15:11:13.859Z,22.76
2022-09-25T15:14:11.505Z,22.74
2022-09-25T15:17:05.010Z,22.66
2022-09-25T15:19:40.300Z,22.61
2022-09-25T15:22:38.666Z,22.66
2022-09-25T15:25:23.103Z,22.69
2022-09-25T15:31:04.970Z,22.70
2022-09-25T15:33:42.513Z,22.65
2022-09-25T15:36:41.807Z,22.84
2022-09-25T15:42:25.451Z,23.06
2022-09-25T15:45:44.461Z,23.03
2022-09-25T15:48:42.148Z,23.01
2022-09-25T15:51:37.712Z,22.86
2022-09-25T15:54:43.411Z,22.67
2022-09-25T15:57:16.803Z,22.48
2022-09-25T16:00:08.513Z,22.32
2022-09-25T16:03:04.587Z,22.11
2022-09-25T16:05:37.895Z,21.92
2022-09-25T16:08:33.925Z,21.74
2022-09-25T16:11:29.222Z,21.50
2022-09-25T16:14:32.174Z,21.30
2022-09-25T16:17:33.386Z,21.14
2022-09-25T16:20:56.708Z,21.00
2022-09-25T16:23:57.286Z,20.80
2022-09-25T16:26:47.874Z,20.63
2022-09-25T16:29:23.376Z,20.56
2022-09-25T16:38:01.786Z,20.38
2022-09-25T16:40:39.590Z,20.34
2022-09-25T16:43:43.756Z,20.28
2022-09-25T16:49:52.455Z,20.13
2022-09-25T17:02:37.375Z,20.01
2022-09-25T17:05:20.870Z,19.94
2022-09-25T17:07:52.754Z,19.91
2022-09-25T17:10:29.364Z,19.89
2022-09-25T17:13:05.945Z,19.90
2022-09-25T17:15:40.639Z,19.91
2022-09-25T17:18:23.445Z,19.91
2022-09-25T17:21:21.794Z,19.89
2022-09-25T17:23:58.680Z,19.87
2022-09-25T17:26:37.029Z,19.83
2022-09-25T17:29:13.843Z,19.75
2022-09-25T17:31:46.830Z,19.70
2022-09-25T17:34:51.581Z,19.67
2022-09-25T17:37:28.366Z,19.63
2022-09-25T17:41:16.584Z,19.60
2022-09-25T17:43:57.077Z,19.53
2022-09-25T17:46:34.335Z,19.52
2022-09-25T17:52:27.470Z,19.44
2022-09-25T17:55:06.682Z,19.37
2022-09-25T17:57:45.660Z,19.38
2022-09-25T18:00:45.253Z,19.36
2022-09-25T18:03:46.857Z,19.30
2022-09-25T18:06:31.219Z,19.20
2022-09-25T18:09:32.755Z,19.15
2022-09-25T18:16:46.057Z,19.06
2022-09-25T18:19:45.752Z,19.02
2022-09-25T18:22:22.454Z,18.95
2022-09-25T18:24:58.930Z,18.88
2022-09-25T18:27:57.312Z,18.87
2022-09-25T18:30:32.797Z,18.83
2022-09-25T18:33:10.594Z,18.79
2022-09-25T18:35:46.526Z,18.74
2022-09-25T18:38:50.595Z,18.73
2022-09-25T18:41:32.625Z,18.68
2022-09-25T18:44:41.304Z,18.64
2022-09-25T18:47:49.810Z,18.59
2022-09-25T18:50:29.730Z,18.53
2022-09-25T18:53:16.098Z,18.47
2022-09-25T18:55:53.643Z,18.42
2022-09-25T18:58:31.764Z,18.38
2022-09-25T19:01:07.606Z,18.33
2022-09-25T19:03:44.589Z,18.25
2022-09-25T19:07:04.426Z,18.20
2022-09-25T19:09:44.139Z,18.16
2022-09-25T19:12:41.217Z,18.08
2022-09-25T19:15:25.066Z,17.99
2022-09-25T19:18:00.294Z,17.98
2022-09-25T19:20:35.569Z,17.96
2022-09-25T19:26:27.624Z,17.87
2022-09-25T19:29:01.864Z,17.89
2022-09-25T19:31:44.647Z,17.91
2022-09-25T19:34:19.588Z,17.89
2022-09-25T19:36:57.447Z,17.86
2022-09-25T19:40:13.439Z,17.88
2022-09-25T19:42:48.543Z,17.88
2022-09-25T19:45:20.671Z,17.88
2022-09-25T19:48:19.740Z,17.83
2022-09-25T19:51:16.679Z,17.80
2022-09-25T19:54:15.240Z,17.73
2022-09-25T19:57:11.398Z,17.66
2022-09-25T19:59:49.640Z,17.58
2022-09-25T20:02:30.759Z,17.55
2022-09-25T20:05:17.928Z,17.51
2022-09-25T20:07:49.796Z,17.45
2022-09-25T20:10:20.725Z,17.41
2022-09-25T20:12:52.718Z,17.41
2022-09-25T20:15:26.045Z,17.37
2022-09-25T20:18:03.860Z,17.35
2022-09-25T20:20:36.445Z,17.34
2022-09-25T20:23:12.310Z,17.32
2022-09-25T20:25:42.266Z,17.33
2022-09-25T20:28:59.012Z,17.28
2022-09-25T20:31:56.066Z,17.24
2022-09-25T20:34:27.823Z,17.21
2022-09-25T20:37:06.146Z,17.18
2022-09-25T20:40:10.799Z,17.20
2022-09-25T20:42:52.799Z,17.11
2022-09-25T20:45:48.325Z,17.06
2022-09-25T20:48:20.837Z,17.06
2022-09-25T20:52:04.436Z,17.01
2022-09-25T20:57:54.714Z,16.92
2022-09-25T21:00:31.936Z,16.88
2022-09-25T21:03:04.863Z,16.81
2022-09-25T21:05:49.547Z,16.76
2022-09-25T21:08:20.855Z,16.71
2022-09-25T21:10:55.762Z,16.68
2022-09-25T21:13:51.323Z,16.64
2022-09-25T21:16:33.225Z,16.58
2022-09-25T21:19:31.944Z,16.50
2022-09-25T21:22:24.762Z,16.47
2022-09-25T21:25:18.498Z,16.38
2022-09-25T21:28:17.110Z,16.31
2022-09-25T21:30:47.506Z,16.23
2022-09-25T21:34:36.507Z,16.21
2022-09-25T21:37:32.842Z,16.17
2022-09-25T21:40:20.335Z,16.11
2022-09-25T21:43:13.701Z,16.09
2022-09-25T21:46:08.945Z,16.03
2022-09-25T21:55:22.261Z,15.90
2022-09-25T21:57:56.258Z,15.87
2022-09-25T22:00:26.705Z,15.83
2022-09-25T22:03:00.547Z,15.79
2022-09-25T22:05:34.827Z,15.75
2022-09-25T22:08:08.619Z,15.69
2022-09-25T22:17:57.245Z,15.61
2022-09-25T22:20:32.299Z,15.61
2022-09-25T22:23:08.314Z,15.62
2022-09-25T22:25:38.685Z,15.60
2022-09-25T22:28:08.672Z,15.57
2022-09-25T22:30:45.490Z,15.53
2022-09-25T22:33:24.299Z,15.51
2022-09-25T22:36:05.105Z,15.45
2022-09-25T22:39:23.781Z,15.41
2022-09-25T22:42:01.898Z,15.33
2022-09-25T22:45:27.922Z,15.32
2022-09-25T22:47:59.555Z,15.30
2022-09-25T22:50:33.661Z,15.27
2022-09-25T22:53:07.396Z,15.22
2022-09-25T22:55:38.160Z,15.22
2022-09-25T22:58:06.733Z,15.23
2022-09-25T23:00:38.979Z,15.23
2022-09-25T23:03:11.276Z,15.24
2022-09-25T23:05:51.880Z,15.22
2022-09-25T23:08:21.888Z,15.20
2022-09-25T23:11:46.108Z,15.18
2022-09-25T23:14:29.855Z,15.20
2022-09-25T23:20:48.248Z,15.27
2022-09-25T23:23:19.772Z,15.26
2022-09-25T23:25:53.091Z,15.28
2022-09-25T23:28:22.316Z,15.32
2022-09-25T23:30:57.343Z,15.33
2022-09-25T23:33:28.594Z,15.33
2022-09-25T23:36:25.496Z,15.36
2022-09-25T23:39:24.929Z,15.36
2022-09-25T23:42:03.744Z,15.29
2022-09-25T23:45:24.484Z,15.33
2022-09-25T23:47:57.755Z,15.36
2022-09-25T23:50:30.677Z,15.30
2022-09-25T23:53:09.296Z,15.26
2022-09-25T23:56:07.635Z,15.22
2022-09-25T23:59:27.297Z,15.18
